Time;durP1;ratioP1;P1;durP2;ratioP2;P2;SDS_P1;SDS_P2;PMS_P1;PMS_P2;Temp;Humidity;BMP_temperature;BMP_pressure;BME280_temperature;BME280_humidity;BME280_pressure;Samples;Min_cycle;Max_cycle;Signal;HPM_P1;HPM_P2
2021/03/18 00:01:50;;;;;;;26.55;8.60;;;;;;;2.02;70.62;99341.37;1784968;80;21167;-69
2021/03/18 00:04:19;;;;;;;16.80;6.65;;;;;;;1.99;70.86;99331.04;1786465;80;21870;-68
2021/03/18 00:06:47;;;;;;;17.23;6.35;;;;;;;2.01;71.97;99334.02;1786331;80;21190;-67
2021/03/18 00:09:18;;;;;;;24.05;7.33;;;;;;;2.04;71.82;99326.17;1786130;80;21174;-68
2021/03/18 00:11:48;;;;;;;26.60;7.17;;;;;;;2.05;72.21;99330.95;1786596;80;21614;-69
2021/03/18 00:14:19;;;;;;;18.37;6.37;;;;;;;2.05;72.74;99331.80;1786283;80;21210;-69
2021/03/18 00:16:49;;;;;;;21.80;6.35;;;;;;;2.04;72.26;99328.77;1777366;80;21268;-69
2021/03/18 00:19:17;;;;;;;18.95;7.37;;;;;;;2.03;71.74;99337.91;1776050;80;21653;-68
2021/03/18 00:21:47;;;;;;;;;;;;;;;1.99;71.46;99333.63;1762709;80;21172;-68
2021/03/18 00:24:17;;;;;;;17.48;6.85;;;;;;;2.00;71.78;99334.04;1745168;82;20309;-67
2021/03/18 00:26:44;;;;;;;14.50;5.87;;;;;;;1.97;71.70;99323.70;1745224;82;21200;-69
2021/03/18 00:29:12;;;;;;;15.03;5.53;;;;;;;1.99;72.36;99327.14;1745313;82;22395;-68
2021/03/18 00:31:42;;;;;;;16.15;5.90;;;;;;;2.02;73.50;99324.48;1744078;80;21201;-68
2021/03/18 00:34:09;;;;;;;15.00;5.72;;;;;;;2.05;73.79;99320.12;1747955;82;21620;-69
2021/03/18 00:36:37;;;;;;;22.42;6.95;;;;;;;2.05;73.22;99328.36;1748066;82;21704;-66
2021/03/18 00:39:07;;;;;;;22.30;6.70;;;;;;;2.06;72.72;99324.87;1747893;82;21150;-69
2021/03/18 00:41:36;;;;;;;16.55;6.37;;;;;;;2.07;72.39;99323.55;1748063;82;21375;-68
2021/03/18 00:44:06;;;;;;;21.20;6.77;;;;;;;2.06;72.14;99328.77;1747009;82;21186;-67
2021/03/18 00:46:33;;;;;;;22.67;7.03;;;;;;;2.03;72.24;99327.52;1745480;82;21650;-68
2021/03/18 00:49:05;;;;;;;22.10;6.80;;;;;;;2.01;71.58;99317.59;1744984;82;21202;-67
2021/03/18 00:51:33;;;;;;;20.62;6.72;;;;;;;1.99;71.69;99318.05;1745453;81;21637;-68
2021/03/18 00:54:01;;;;;;;20.05;6.22;;;;;;;1.96;71.52;99324.60;1745291;82;21643;-68
2021/03/18 00:56:28;;;;;;;19.35;6.83;;;;;;;1.95;71.38;99320.27;1745227;82;21178;-68
2021/03/18 00:58:58;;;;;;;25.97;7.53;;;;;;;1.94;71.89;99318.13;1745292;82;21194;-70
2021/03/18 01:01:26;;;;;;;28.80;7.05;;;;;;;1.94;71.68;99318.56;1745268;82;21134;-70
2021/03/18 01:03:57;;;;;;;20.27;7.37;;;;;;;1.90;71.44;99328.13;1745807;82;21562;-69
2021/03/18 01:06:29;;;;;;;18.32;6.05;;;;;;;1.87;71.42;99319.95;1745449;82;21792;-71
2021/03/18 01:08:59;;;;;;;17.87;5.72;;;;;;;1.87;72.20;99326.44;1745273;82;21155;-68
2021/03/18 01:11:37;;;;;;;17.50;6.30;;;;;;;1.91;72.71;99330.28;1745478;82;21203;-67
2021/03/18 01:14:11;;;;;;;26.00;6.22;;;;;;;1.94;73.77;99323.77;1745422;82;21115;-69
2021/03/18 01:16:47;;;;;;;21.95;6.65;;;;;;;1.94;73.45;99323.77;1750489;81;21229;-67
2021/03/18 01:19:16;;;;;;;20.92;7.70;;;;;;;1.94;73.57;99318.56;1753077;81;21252;-67
2021/03/18 01:21:47;;;;;;;19.45;7.15;;;;;;;1.91;72.76;99317.30;1752952;81;21178;-68
2021/03/18 01:24:15;;;;;;;17.70;5.78;;;;;;;1.91;72.73;99322.07;1753315;81;21530;-68
2021/03/18 01:26:43;;;;;;;25.32;7.45;;;;;;;1.88;72.90;99314.31;1752948;81;21190;-68
2021/03/18 01:29:14;;;;;;;23.85;6.92;;;;;;;1.87;73.29;99313.91;1752970;81;21166;-69
2021/03/18 01:31:42;;;;;;;22.13;7.62;;;;;;;1.86;73.56;99316.95;1753226;81;21287;-68
2021/03/18 01:34:10;;;;;;;21.90;6.83;;;;;;;1.83;72.83;99321.31;1753266;81;21138;-67
2021/03/18 01:36:39;;;;;;;24.25;7.58;;;;;;;1.78;72.53;99314.89;1753065;81;21210;-68
2021/03/18 01:39:08;;;;;;;21.23;7.25;;;;;;;1.75;72.44;99316.24;1753093;81;21181;-69
2021/03/18 01:41:35;;;;;;;27.17;7.85;;;;;;;1.71;72.45;99315.86;1753069;81;21163;-68
2021/03/18 01:44:04;;;;;;;18.80;7.33;;;;;;;1.71;72.56;99317.61;1761957;80;21183;-68
2021/03/18 01:46:32;;;;;;;16.45;7.40;;;;;;;1.71;73.71;99324.09;1784131;80;21460;-69
2021/03/18 01:49:03;;;;;;;23.75;8.18;;;;;;;1.71;74.13;99318.45;1784391;80;21186;-68
2021/03/18 01:51:32;;;;;;;28.47;8.08;;;;;;;1.71;73.26;99306.78;1784166;80;21727;-68
2021/03/18 01:54:00;;;;;;;20.00;6.87;;;;;;;1.68;72.75;99317.21;1783741;80;21203;-69
2021/03/18 01:56:27;;;;;;;19.48;8.18;;;;;;;1.67;73.34;99314.17;1782343;80;22390;-69
2021/03/18 01:58:55;;;;;;;31.40;8.60;;;;;;;1.67;73.47;99316.77;1782311;80;21139;-69
2021/03/18 02:01:23;;;;;;;25.10;8.03;;;;;;;1.68;73.99;99317.21;1733582;80;21156;-69
2021/03/18 02:03:51;;;;;;;26.90;8.88;;;;;;;1.65;73.21;99319.83;1782834;80;21642;-69
2021/03/18 02:06:19;;;;;;;27.15;8.58;;;;;;;1.63;73.57;99318.98;1782547;80;21167;-68
2021/03/18 02:08:47;;;;;;;22.82;8.85;;;;;;;1.63;73.34;99316.39;1782657;80;21363;-68
2021/03/18 02:11:15;;;;;;;19.62;7.85;;;;;;;1.63;73.02;99317.69;1782423;80;21186;-69
2021/03/18 02:13:42;;;;;;;21.48;7.62;;;;;;;1.62;72.78;99317.28;1782550;80;21657;-68
2021/03/18 02:16:12;;;;;;;24.35;9.03;;;;;;;1.61;72.54;99320.33;1781120;80;21127;-68
2021/03/18 02:19:21;;;;;;;24.40;8.58;;;;;;;1.61;72.53;99315.55;1779399;80;21171;-67
2021/03/18 02:22:23;;;;;;;19.32;8.35;;;;;;;1.59;72.27;99318.64;1779273;80;21401;-69
2021/03/18 02:25:16;;;;;;;27.37;8.78;;;;;;;1.59;72.84;99324.67;1779281;80;21199;-69
2021/03/18 02:28:23;;;;;;;29.37;8.83;;;;;;;1.58;71.64;99316.45;1779128;80;21646;-70
2021/03/18 02:31:14;;;;;;;19.82;7.37;;;;;;;1.57;71.47;99316.50;1779039;80;21151;-69
2021/03/18 02:34:02;;;;;;;29.87;8.90;;;;;;;1.56;72.48;99317.36;1778679;80;21160;-69
2021/03/18 02:36:36;;;;;;;28.62;8.18;;;;;;;1.57;71.58;99315.20;1779174;80;21214;-70
2021/03/18 02:39:11;;;;;;;15.03;8.10;;;;;;;1.54;71.05;99316.52;1779144;80;21174;-68
2021/03/18 02:41:50;;;;;;;21.73;7.90;;;;;;;1.54;70.95;99323.00;1779371;80;21190;-70
2021/03/18 02:44:23;;;;;;;23.45;7.95;;;;;;;1.52;71.09;99320.87;1780394;80;21206;-69
2021/03/18 02:47:08;;;;;;;18.73;7.70;;;;;;;1.51;71.40;99321.76;1781897;80;21568;-70
2021/03/18 02:49:43;;;;;;;18.27;7.87;;;;;;;1.52;72.41;99319.56;1753594;80;21376;-70
2021/03/18 02:52:19;;;;;;;26.15;8.68;;;;;;;1.54;72.32;99328.20;1781708;80;21185;-67
2021/03/18 02:54:47;;;;;;;24.95;9.18;;;;;;;1.53;71.22;99331.23;1781785;80;21606;-68
2021/03/18 02:57:15;;;;;;;21.20;8.18;;;;;;;1.50;71.11;99331.29;1781677;80;21226;-69
2021/03/18 02:59:43;;;;;;;24.25;7.53;;;;;;;1.50;71.01;99339.52;1781580;80;21178;-68
2021/03/18 03:02:15;;;;;;;23.02;7.22;;;;;;;1.50;71.49;99339.52;1773995;80;21453;-69
2021/03/18 03:04:43;;;;;;;28.47;8.68;;;;;;;1.50;71.83;99340.81;1779341;80;21154;-69
2021/03/18 03:07:12;;;;;;;18.62;6.55;;;;;;;1.50;71.27;99343.41;1783546;80;21722;-69
2021/03/18 03:09:43;;;;;;;24.45;8.30;;;;;;;1.46;71.29;99343.42;1783280;80;21170;-70
2021/03/18 03:12:11;;;;;;;27.37;8.58;;;;;;;1.48;71.21;99343.87;1783096;80;21159;-70
2021/03/18 03:14:40;;;;;;;26.68;9.35;;;;;;;1.44;71.22;99345.18;1783437;80;21737;-70
2021/03/18 03:17:09;;;;;;;18.82;6.92;;;;;;;1.40;70.79;99346.13;1783801;80;21678;-70
2021/03/18 03:19:39;;;;;;;26.77;7.90;;;;;;;1.39;71.66;99354.77;1784296;80;22207;-70
2021/03/18 03:22:07;;;;;;;19.92;7.15;;;;;;;1.41;72.01;99362.09;1784002;80;21182;-70
2021/03/18 03:24:36;;;;;;;28.55;9.23;;;;;;;1.40;72.38;99352.61;1784117;80;21138;-70
2021/03/18 03:27:06;;;;;;;31.57;8.15;;;;;;;1.40;71.61;99351.31;1783569;80;22586;-68
2021/03/18 03:29:35;;;;;;;19.67;7.35;;;;;;;1.34;71.03;99348.78;1782455;80;21170;-68
2021/03/18 03:32:04;;;;;;;25.05;7.78;;;;;;;1.33;71.32;99348.78;1782239;80;21646;-68
2021/03/18 03:34:34;;;;;;;25.57;9.23;;;;;;;1.31;71.44;99348.83;1782576;80;21219;-68
2021/03/18 03:37:01;;;;;;;20.97;7.03;;;;;;;1.31;71.40;99357.02;1782443;80;21194;-68
2021/03/18 03:40:51;;;;;;;20.43;6.83;;;;;;;1.36;72.90;99361.74;1814302;79;22148;-68
2021/03/18 03:43:20;;;;;;;29.87;9.60;;;;;;;1.31;72.87;99363.51;1787413;80;21610;-68
2021/03/18 03:45:49;;;;;;;30.92;8.70;;;;;;;1.31;73.04;99362.21;1755987;81;21295;-67
2021/03/18 03:48:16;;;;;;;20.45;8.43;;;;;;;1.29;72.47;99360.95;1756349;81;22264;-68
2021/03/18 03:50:44;;;;;;;29.25;9.70;;;;;;;1.25;72.16;99361.86;1756364;81;21584;-67
2021/03/18 03:53:33;;;;;;;20.43;6.80;;;;;;;1.26;73.33;99363.56;1756103;81;21214;-67
2021/03/18 03:56:13;;;;;;;21.75;7.72;;;;;;;1.26;73.34;99371.34;1755989;81;21041;-68
2021/03/18 03:58:55;;;;;;;20.45;7.45;;;;;;;1.21;72.43;99369.25;1756138;81;21223;-68
2021/03/18 04:01:34;;;;;;;17.95;6.78;;;;;;;1.16;72.76;99374.48;1756040;81;21230;-67
2021/03/18 04:04:15;;;;;;;18.45;7.30;;;;;;;1.15;73.63;99369.30;1752144;81;22257;-68
2021/03/18 04:06:44;;;;;;;27.62;7.67;;;;;;;1.12;73.97;99365.46;1756403;81;21201;-67
2021/03/18 04:09:16;;;;;;;27.55;8.58;;;;;;;1.10;73.55;99371.95;1756097;81;21225;-69
2021/03/18 04:11:44;;;;;;;27.07;7.60;;;;;;;1.09;72.73;99374.58;1756155;81;21378;-70
2021/03/18 04:14:13;;;;;;;25.77;9.55;;;;;;;1.05;73.13;99373.30;1756222;81;21182;-71
2021/03/18 04:16:43;;;;;;;27.00;7.92;;;;;;;1.05;73.12;99377.63;1756146;81;21630;-68
2021/03/18 04:19:15;;;;;;;20.52;7.47;;;;;;;1.03;72.85;99380.22;1756415;81;21195;-69
2021/03/18 04:21:43;;;;;;;24.00;7.42;;;;;;;1.04;73.27;99378.52;1756377;81;21191;-69
2021/03/18 04:24:12;;;;;;;17.92;7.05;;;;;;;1.05;73.13;99383.66;1727026;81;22517;-69
2021/03/18 04:26:42;;;;;;;18.42;6.50;;;;;;;1.04;73.67;99387.15;1756227;81;21190;-72
2021/03/18 04:29:09;;;;;;;27.95;7.90;;;;;;;1.07;73.71;99380.22;1756031;81;21146;-70
2021/03/18 04:31:40;;;;;;;31.90;9.15;;;;;;;1.08;73.43;99381.47;1755881;81;21242;-70
2021/03/18 04:34:09;;;;;;;17.23;7.75;;;;;;;1.05;72.95;99381.07;1756574;81;21156;-70
2021/03/18 04:36:37;;;;;;;15.35;7.22;;;;;;;1.07;73.53;99385.40;1756246;81;21368;-71
2021/03/18 04:39:06;;;;;;;17.45;7.53;;;;;;;1.10;74.39;99386.66;1755070;81;21175;-69
2021/03/18 04:41:33;;;;;;;26.97;8.80;;;;;;;1.11;74.68;99392.28;1748634;82;21689;-70
2021/03/18 04:44:01;;;;;;;17.37;7.53;;;;;;;1.13;74.50;99387.91;1748582;82;21147;-70
2021/03/18 04:46:29;;;;;;;21.90;7.70;;;;;;;1.15;74.14;99391.34;1748495;82;21753;-69
2021/03/18 04:48:59;;;;;;;26.68;8.13;;;;;;;1.13;73.56;99394.39;1748597;82;21214;-71
2021/03/18 04:51:27;;;;;;;27.58;7.85;;;;;;;1.13;73.49;99397.87;1748143;82;21143;-69
2021/03/18 04:53:55;;;;;;;22.75;8.25;;;;;;;1.14;74.06;99396.12;1748349;82;21634;-70
2021/03/18 04:56:23;;;;;;;18.27;8.25;;;;;;;1.13;73.32;99394.39;1748203;82;21191;-70
2021/03/18 04:58:51;;;;;;;29.32;8.38;;;;;;;1.14;73.43;99400.02;1748275;82;21166;-70
2021/03/18 05:01:18;;;;;;;17.07;7.12;;;;;;;1.15;72.99;99405.61;1785073;79;22041;-69
2021/03/18 05:03:47;;;;;;;21.25;7.40;;;;;;;1.16;73.23;99403.45;1722882;83;21200;-69
2021/03/18 05:06:15;;;;;;;13.28;6.10;;;;;;;1.18;72.75;99409.49;1729447;81;22136;-70
2021/03/18 05:08:43;;;;;;;18.50;6.78;;;;;;;1.20;72.78;99410.34;1722714;82;21425;-70
2021/03/18 05:11:11;;;;;;;23.40;7.05;;;;;;;1.21;73.13;99410.75;1722700;83;21201;-69
2021/03/18 05:13:39;;;;;;;19.17;7.65;;;;;;;1.22;72.57;99408.56;1718873;83;21410;-72
2021/03/18 05:16:08;;;;;;;19.40;6.35;;;;;;;1.24;73.10;99409.41;1758132;79;21187;-72
2021/03/18 05:18:37;;;;;;;23.98;6.62;;;;;;;1.28;72.79;99413.69;1760913;80;21145;-72
2021/03/18 05:21:06;;;;;;;16.62;6.05;;;;;;;1.31;72.38;99417.57;1775271;80;21217;-73
2021/03/18 05:23:33;;;;;;;23.45;6.20;;;;;;;1.34;73.01;99416.23;1778426;80;21139;-73
2021/03/18 05:26:01;;;;;;;25.75;7.05;;;;;;;1.38;71.98;99425.70;1773523;80;21207;-73
2021/03/18 05:28:29;;;;;;;21.52;6.50;;;;;;;1.40;72.71;99424.37;1779485;80;21157;-72
2021/03/18 05:30:56;;;;;;;14.70;6.22;;;;;;;1.42;71.63;99420.03;1783294;79;21663;-72
2021/03/18 05:33:24;;;;;;;13.90;6.22;;;;;;;1.43;72.85;99429.10;1768653;80;21183;-72
2021/03/18 05:35:52;;;;;;;19.07;6.97;;;;;;;1.49;72.97;99429.45;1785380;79;21230;-72
2021/03/18 05:38:21;;;;;;;19.73;6.80;;;;;;;1.55;72.86;99433.28;1779228;80;21377;-73
2021/03/18 05:40:57;;;;;;;20.75;8.15;;;;;;;1.61;73.09;99437.53;1778758;80;21216;-71
2021/03/18 05:43:26;;;;;;;17.17;6.97;;;;;;;1.67;72.89;99440.92;1778373;80;21225;-71
2021/03/18 05:45:55;;;;;;;21.10;8.03;;;;;;;1.73;72.30;99438.70;1777812;80;21177;-71
2021/03/18 05:48:24;;;;;;;29.87;8.70;;;;;;;1.80;72.24;99438.20;1777838;80;21191;-71
2021/03/18 05:50:51;;;;;;;19.45;7.05;;;;;;;1.86;72.15;99444.17;1778175;80;22283;-73
2021/03/18 05:53:20;;;;;;;14.43;7.22;;;;;;;1.96;72.19;99447.95;1778233;80;21752;-73
2021/03/18 05:55:52;;;;;;;19.20;7.40;;;;;;;2.06;72.17;99441.74;1750777;80;21726;-74
2021/03/18 05:58:23;;;;;;;29.20;8.17;;;;;;;2.16;71.96;99442.02;1779337;80;21139;-71
2021/03/18 06:00:52;;;;;;;19.98;8.00;;;;;;;2.29;72.20;99442.72;1778925;80;21438;-71
2021/03/18 06:03:22;;;;;;;;;;;;;;;2.39;72.84;99444.29;1753795;80;21615;-71
2021/03/18 06:05:52;;;;;;;19.85;7.10;;;;;;;2.52;72.21;99448.88;1747191;81;20286;-71
2021/03/18 06:08:19;;;;;;;18.05;7.70;;;;;;;2.63;71.73;99452.17;1754311;79;21187;-72
2021/03/18 06:10:48;;;;;;;27.73;8.88;;;;;;;2.76;71.36;99458.47;1763539;80;21285;-71
2021/03/18 06:13:16;;;;;;;18.98;7.83;;;;;;;2.85;71.39;99455.30;1763792;80;21181;-72
2021/03/18 06:15:43;;;;;;;21.90;7.47;;;;;;;3.00;71.20;99452.02;1763565;81;21824;-72
2021/03/18 06:18:12;;;;;;;22.10;8.25;;;;;;;3.17;70.62;99453.02;1763518;80;21187;-71
2021/03/18 06:20:40;;;;;;;18.23;7.78;;;;;;;3.27;70.08;99449.38;1763402;81;21994;-72
2021/03/18 06:23:09;;;;;;;18.35;7.12;;;;;;;3.49;69.51;99448.07;1674728;83;21170;-73
2021/03/18 06:25:37;;;;;;;21.05;7.28;;;;;;;3.49;69.51;99448.07;1747883;82;21586;-68
2021/03/18 06:28:29;;;;;;;18.98;7.80;;;;;;;3.63;69.21;99456.07;1758979;80;22753;-68
2021/03/18 06:31:07;;;;;;;22.48;8.58;;;;;;;3.75;67.95;99455.81;1763322;79;21121;-70
2021/03/18 06:33:41;;;;;;;17.77;8.40;;;;;;;3.77;67.70;99456.64;1766484;80;21202;-70
2021/03/18 06:36:31;;;;;;;21.48;8.65;;;;;;;3.77;67.70;99456.64;1745601;82;21242;-70
2021/03/18 06:39:11;;;;;;;19.57;8.33;;;;;;;3.79;67.60;99460.08;1748818;82;21216;-70
2021/03/18 06:41:47;;;;;;;22.32;9.18;;;;;;;3.77;66.99;99461.86;1742759;82;21206;-69
2021/03/18 06:44:27;;;;;;;22.20;8.85;;;;;;;3.76;67.45;99461.00;1742469;80;21195;-70
2021/03/18 06:46:59;;;;;;;21.45;8.23;;;;;;;3.78;66.97;99460.98;1742592;82;21144;-69
2021/03/18 06:49:26;;;;;;;22.80;10.03;;;;;;;3.80;66.99;99456.61;1741701;82;21219;-70
2021/03/18 06:52:12;;;;;;;20.30;9.55;;;;;;;3.85;67.82;99463.88;1742301;80;21214;-69
2021/03/18 06:54:44;;;;;;;21.02;8.25;;;;;;;3.99;69.56;99464.89;1721486;82;21373;-70
2021/03/18 06:57:12;;;;;;;29.90;10.38;;;;;;;4.22;68.23;99463.55;1742220;82;21191;-70
2021/03/18 06:59:42;;;;;;;22.15;11.15;;;;;;;4.46;68.79;99459.53;1742261;82;21203;-69
2021/03/18 07:02:17;;;;;;;21.25;9.53;;;;;;;4.72;68.07;99465.01;1776479;79;21222;-71
2021/03/18 07:04:51;;;;;;;19.95;9.13;;;;;;;4.95;66.72;99459.23;1787347;79;22085;-71
2021/03/18 07:07:24;;;;;;;22.75;9.23;;;;;;;5.24;66.11;99461.11;1771203;79;22542;-71
2021/03/18 07:09:54;;;;;;;16.48;9.03;;;;;;;5.51;64.30;99458.65;1765618;79;21175;-70
2021/03/18 07:12:28;;;;;;;22.52;9.23;;;;;;;5.67;63.98;99456.48;1758997;79;21207;-70
2021/03/18 07:14:58;;;;;;;23.05;9.38;;;;;;;5.83;63.52;99459.52;1763010;79;21138;-70
2021/03/18 07:17:35;;;;;;;24.67;10.48;;;;;;;5.99;63.93;99461.28;1764549;79;21183;-70
2021/03/18 07:20:20;;;;;;;26.87;9.63;;;;;;;6.12;63.86;99460.45;1763436;79;22340;-70
2021/03/18 07:22:55;;;;;;;19.82;8.50;;;;;;;6.26;64.14;99458.31;1749987;79;21184;-70
2021/03/18 07:25:28;;;;;;;26.93;9.18;;;;;;;6.34;64.00;99461.53;1762295;79;21218;-69
2021/03/18 07:28:01;;;;;;;24.47;10.00;;;;;;;6.44;62.74;99455.13;1776558;79;21254;-70
2021/03/18 07:30:35;;;;;;;37.88;9.65;;;;;;;6.58;62.52;99454.70;1751475;80;21120;-70
2021/03/18 07:33:04;;;;;;;31.12;10.85;;;;;;;6.70;61.38;99458.69;1766946;79;21483;-70
2021/03/18 07:35:34;;;;;;;24.18;9.45;;;;;;;6.87;61.38;99458.98;1761539;79;21662;-71
2021/03/18 07:38:02;;;;;;;20.35;9.38;;;;;;;7.11;60.95;99459.10;1766489;79;21167;-70
2021/03/18 07:40:32;;;;;;;24.45;10.20;;;;;;;7.35;59.80;99459.55;1770676;79;21180;-69
2021/03/18 07:43:00;;;;;;;26.10;9.20;;;;;;;7.58;58.81;99460.52;1761593;79;21158;-71
2021/03/18 07:45:27;;;;;;;29.67;9.15;;;;;;;7.80;58.72;99459.74;1771028;79;21167;-70
2021/03/18 07:47:55;;;;;;;21.35;9.05;;;;;;;8.11;56.52;99466.88;1769203;79;22192;-71
2021/03/18 07:50:32;;;;;;;23.85;9.38;;;;;;;8.39;58.68;99461.43;1767667;79;21177;-70
2021/03/18 07:53:00;;;;;;;29.25;9.93;;;;;;;8.69;55.55;99457.70;1767518;79;21250;-70
2021/03/18 07:55:30;;;;;;;24.67;9.90;;;;;;;8.90;52.35;99455.98;1774909;79;21180;-70
2021/03/18 07:57:58;;;;;;;20.70;10.40;;;;;;;8.91;51.96;99449.36;1726430;80;21802;-69
2021/03/18 08:00:26;;;;;;;22.85;9.85;;;;;;;9.09;52.51;99446.88;1737486;79;21199;-70
2021/03/18 08:03:15;;;;;;;24.85;8.90;;;;;;;9.42;52.98;99446.77;1764692;79;21183;-69
2021/03/18 08:05:44;;;;;;;21.75;9.40;;;;;;;9.62;51.87;99450.31;1767144;79;21694;-71
2021/03/18 08:08:35;;;;;;;18.45;8.28;;;;;;;9.74;51.13;99453.71;1767244;79;21227;-70
2021/03/18 08:11:07;;;;;;;22.85;9.20;;;;;;;9.88;51.67;99457.88;1775132;79;21183;-69
2021/03/18 08:13:41;;;;;;;25.75;9.05;;;;;;;9.96;52.20;99451.42;1764548;79;21631;-70
2021/03/18 08:16:29;;;;;;;25.72;9.13;;;;;;;10.06;50.21;99451.41;1734080;79;21467;-69
2021/03/18 08:18:59;;;;;;;26.68;9.63;;;;;;;10.22;52.48;99453.73;1770044;79;21702;-70
2021/03/18 08:21:54;;;;;;;25.00;9.98;;;;;;;10.32;49.83;99448.06;1766407;79;21179;-70
2021/03/18 08:24:25;;;;;;;19.20;8.70;;;;;;;10.23;48.74;99450.16;1771073;79;21454;-69
2021/03/18 08:27:01;;;;;;;20.80;9.73;;;;;;;10.09;49.81;99452.58;1742883;80;21636;-70
2021/03/18 08:29:46;;;;;;;21.57;8.63;;;;;;;10.09;48.19;99452.58;1776713;79;21214;-69
2021/03/18 08:32:30;;;;;;;37.45;11.57;;;;;;;10.18;50.98;99452.16;1778675;79;21190;-69
2021/03/18 08:35:06;;;;;;;26.80;9.63;;;;;;;10.47;48.60;99447.36;1771924;79;21159;-69
2021/03/18 08:37:43;;;;;;;24.92;9.25;;;;;;;10.47;49.29;99447.36;1760288;79;21269;-70
2021/03/18 08:40:23;;;;;;;27.27;10.78;;;;;;;10.55;46.66;99455.72;1759165;79;21214;-70
2021/03/18 08:42:51;;;;;;;23.00;10.13;;;;;;;10.46;46.13;99443.00;1780248;80;21178;-70
2021/03/18 08:45:25;;;;;;;19.95;8.65;;;;;;;10.05;45.92;99452.32;1783665;79;21203;-71
2021/03/18 08:47:57;;;;;;;25.68;8.88;;;;;;;9.72;47.70;99455.55;1768285;79;21843;-68
2021/03/18 08:50:32;;;;;;;23.25;9.23;;;;;;;9.53;49.28;99454.66;1781823;79;22921;-69
2021/03/18 08:53:03;;;;;;;24.02;10.05;;;;;;;9.45;50.07;99458.91;1713227;83;21223;-69
2021/03/18 08:55:47;;;;;;;20.43;9.03;;;;;;;9.37;49.19;99461.88;1748414;81;21211;-68
2021/03/18 08:58:16;;;;;;;14.90;7.92;;;;;;;9.29;49.17;99461.34;1724400;81;21473;-68
2021/03/18 09:03:28;;;;;;;31.70;9.38;;;;;;;9.36;50.72;99456.69;1812864;78;28772;-69
2021/03/18 09:06:18;;;;;;;33.60;9.53;;;;;;;9.39;49.91;99460.05;1806546;79;22041;-68
2021/03/18 09:08:57;;;;;;;25.77;8.55;;;;;;;9.39;48.42;99462.67;1779255;79;21040;-68
2021/03/18 09:11:34;;;;;;;21.82;8.00;;;;;;;9.47;49.13;99460.17;1749231;79;21243;-69
2021/03/18 09:14:08;;;;;;;20.80;7.55;;;;;;;9.61;49.65;99459.11;1807357;79;21151;-69
2021/03/18 09:16:41;;;;;;;26.48;9.53;;;;;;;9.87;46.31;99457.98;1788649;79;21119;-69
2021/03/18 09:19:20;;;;;;;18.85;8.55;;;;;;;9.78;45.38;99459.23;1775416;80;21187;-68
2021/03/18 09:21:51;;;;;;;27.77;9.10;;;;;;;9.69;47.96;99455.70;1745583;80;21378;-68
2021/03/18 09:24:38;;;;;;;22.13;7.72;;;;;;;9.96;47.76;99456.69;1744013;80;21118;-69
2021/03/18 09:27:19;;;;;;;31.82;9.78;;;;;;;10.08;47.03;99454.83;1772289;79;21179;-68
2021/03/18 09:29:54;;;;;;;18.95;8.40;;;;;;;10.08;47.54;99450.88;1791870;79;21253;-69
2021/03/18 09:32:33;;;;;;;20.08;8.58;;;;;;;10.07;46.36;99455.73;1799657;79;21139;-70
2021/03/18 09:35:14;;;;;;;21.48;7.72;;;;;;;9.98;45.77;99454.84;1771086;79;21401;-69
2021/03/18 09:37:51;;;;;;;23.73;8.30;;;;;;;9.82;49.54;99459.50;1767001;79;21202;-69
2021/03/18 09:40:36;;;;;;;26.37;9.50;;;;;;;9.75;48.70;99455.41;1749241;79;21776;-69
2021/03/18 09:43:06;;;;;;;28.45;8.20;;;;;;;9.70;48.57;99456.08;1766724;79;21639;-68
2021/03/18 09:46:05;;;;;;;24.52;9.83;;;;;;;9.38;48.54;99460.95;1703782;79;21574;-69
2021/03/18 09:48:39;;;;;;;21.37;8.28;;;;;;;9.01;49.37;99466.44;1780621;79;22285;-69
2021/03/18 09:51:21;;;;;;;21.48;8.98;;;;;;;8.69;51.28;99459.02;1791585;79;21174;-69
2021/03/18 09:54:05;;;;;;;15.40;7.35;;;;;;;8.52;53.70;99471.50;1784699;79;21171;-69
2021/03/18 09:56:50;;;;;;;15.58;8.48;;;;;;;8.42;53.41;99468.39;1806562;79;21242;-70
2021/03/18 09:59:29;;;;;;;19.60;8.73;;;;;;;8.23;52.17;99469.95;1806647;79;21673;-70
2021/03/18 10:02:10;;;;;;;26.97;8.20;;;;;;;8.01;53.01;99470.77;1803107;79;21317;-68
2021/03/18 10:04:53;;;;;;;28.83;8.20;;;;;;;7.88;53.12;99464.27;1759229;79;21179;-69
2021/03/18 10:07:55;;;;;;;28.17;8.60;;;;;;;7.80;53.43;99469.80;1843454;76;28944;-69
2021/03/18 10:10:25;;;;;;;23.57;7.65;;;;;;;7.62;52.97;99469.14;1815288;79;21621;-69
2021/03/18 10:12:55;;;;;;;17.50;7.00;;;;;;;7.50;53.61;99475.64;1815720;79;21503;-70
2021/03/18 10:15:29;;;;;;;13.62;6.35;;;;;;;7.43;52.90;99470.22;1815797;79;21232;-69
2021/03/18 10:18:11;;;;;;;23.35;8.20;;;;;;;7.40;52.42;99473.80;1815509;79;21197;-69
2021/03/18 10:20:46;;;;;;;20.68;6.85;;;;;;;7.33;52.06;99475.77;1758361;79;21162;-68
2021/03/18 10:23:22;;;;;;;25.23;7.00;;;;;;;7.33;51.86;99475.77;1734041;82;21158;-67
2021/03/18 10:25:54;;;;;;;17.55;6.50;;;;;;;7.37;51.51;99475.69;1703622;82;21212;-68
2021/03/18 10:28:32;;;;;;;22.30;6.37;;;;;;;7.34;49.83;99467.03;1710624;79;21138;-68
2021/03/18 10:31:20;;;;;;;23.95;7.05;;;;;;;7.33;50.37;99463.98;1854901;76;38270;-67
2021/03/18 10:33:57;;;;;;;20.70;6.12;;;;;;;7.36;49.79;99470.88;1784638;79;22116;-68
2021/03/18 10:36:43;;;;;;;14.97;6.47;;;;;;;7.44;50.39;99466.70;1807194;79;22455;-68
2021/03/18 10:39:25;;;;;;;19.73;6.90;;;;;;;7.45;49.50;99470.56;1783850;80;21202;-69
2021/03/18 10:42:02;;;;;;;15.48;6.78;;;;;;;7.31;50.41;99472.34;1732587;79;21143;-68
2021/03/18 10:44:41;;;;;;;19.27;6.83;;;;;;;7.25;50.89;99473.05;1798151;79;21305;-69
2021/03/18 10:47:21;;;;;;;17.05;6.70;;;;;;;7.15;49.49;99473.78;1782044;79;21131;-68
2021/03/18 10:50:13;;;;;;;20.43;6.70;;;;;;;7.10;51.78;99473.94;1813010;79;21484;-67
2021/03/18 10:53:09;;;;;;;57.62;7.70;;;;;;;7.14;50.82;99475.55;1785384;79;21189;-68
2021/03/18 10:55:50;;;;;;;20.27;7.28;;;;;;;7.10;49.99;99475.70;1802502;78;21135;-68
2021/03/18 10:58:29;;;;;;;24.90;6.97;;;;;;;7.02;49.56;99474.66;1787764;79;21153;-69
2021/03/18 11:01:08;;;;;;;16.82;5.45;;;;;;;6.97;50.59;99479.20;1769986;80;21138;-69
2021/03/18 11:03:43;;;;;;;23.73;5.62;;;;;;;6.96;55.02;99487.09;1753821;80;21369;-71
2021/03/18 11:06:30;;;;;;;19.52;5.95;;;;;;;6.89;54.09;99487.27;1784100;80;21184;-70
2021/03/18 11:09:08;;;;;;;20.25;6.40;;;;;;;6.79;56.06;99484.56;1779524;79;21152;-70
2021/03/18 11:11:42;;;;;;;12.65;5.47;;;;;;;6.76;54.98;99491.64;1785166;79;21618;-69
2021/03/18 11:14:16;;;;;;;16.20;5.65;;;;;;;6.74;54.07;99486.48;1812656;79;21139;-68
2021/03/18 11:17:07;;;;;;;19.52;7.00;;;;;;;6.73;54.04;99480.36;1808901;79;21860;-69
2021/03/18 11:19:42;;;;;;;20.72;6.00;;;;;;;6.72;54.22;99481.74;1784727;79;21162;-69
2021/03/18 11:22:17;;;;;;;13.38;5.58;;;;;;;6.67;55.01;99479.70;1814240;79;21606;-66
2021/03/18 11:24:53;;;;;;;13.93;6.33;;;;;;;6.61;56.62;99479.91;1776289;79;21119;-69
2021/03/18 11:27:28;;;;;;;11.18;6.20;;;;;;;6.58;57.36;99474.75;1808875;79;21305;-70
2021/03/18 11:30:13;;;;;;;15.68;6.55;;;;;;;6.57;59.63;99473.91;1750632;80;21630;-69
2021/03/18 11:32:43;;;;;;;19.55;8.10;;;;;;;6.58;56.58;99466.91;1748352;81;21194;-69
2021/03/18 11:35:14;;;;;;;21.20;8.05;;;;;;;6.55;56.32;99469.63;1746561;81;21649;-68
2021/03/18 11:37:47;;;;;;;15.83;8.23;;;;;;;6.47;57.55;99481.19;1755583;81;21673;-69
2021/03/18 11:40:28;;;;;;;13.83;7.62;;;;;;;6.46;57.57;99478.61;1680575;83;21126;-68
2021/03/18 11:43:05;;;;;;;18.02;7.62;;;;;;;6.42;57.37;99476.55;1742840;81;21157;-68
2021/03/18 11:45:40;;;;;;;11.40;6.45;;;;;;;6.40;57.27;99480.97;1736399;81;21829;-70
2021/03/18 11:48:15;;;;;;;13.80;6.12;;;;;;;6.36;58.51;99480.65;1724392;82;21130;-70
2021/03/18 11:50:52;;;;;;;19.45;7.20;;;;;;;6.35;58.60;99476.34;1730394;82;21184;-70
2021/03/18 11:53:29;;;;;;;17.30;6.35;;;;;;;6.38;57.90;99477.55;1741522;81;21199;-70
2021/03/18 11:56:05;;;;;;;15.15;7.33;;;;;;;6.36;59.00;99475.42;1718616;82;21392;-70
2021/03/18 11:58:47;;;;;;;16.12;8.35;;;;;;;6.33;58.44;99481.18;1754009;80;21250;-70
2021/03/18 12:01:24;;;;;;;16.37;6.65;;;;;;;6.28;57.84;99482.63;1736136;82;21155;-71
2021/03/18 12:04:05;;;;;;;18.35;7.20;;;;;;;6.32;58.75;99479.02;1774761;80;21158;-70
2021/03/18 12:06:39;;;;;;;14.75;7.72;;;;;;;6.36;59.50;99488.50;1732966;82;21481;-69
2021/03/18 12:09:20;;;;;;;17.52;7.80;;;;;;;6.36;59.28;99484.58;1740332;81;21490;-70